sensor_id;sensor_type;location;lat;lon;timestamp;temperature;humidity
24326;DHT22;12448;45.532;5.290;2024-03-23T00:56:23;15.40;87.00
24326;DHT22;12448;45.532;5.290;2024-03-23T00:58:49;15.40;87.80
24326;DHT22;12448;45.532;5.290;2024-03-23T01:01:21;15.40;87.00
24326;DHT22;12448;45.532;5.290;2024-03-23T01:04:04;15.30;87.00
24326;DHT22;12448;45.532;5.290;2024-03-23T01:06:51;15.30;86.90
24326;DHT22;12448;45.532;5.290;2024-03-23T01:09:45;15.20;86.90
24326;DHT22;12448;45.532;5.290;2024-03-23T01:12:36;15.20;86.90
24326;DHT22;12448;45.532;5.290;2024-03-23T01:15:11;15.30;87.00
24326;DHT22;12448;45.532;5.290;2024-03-23T01:17:43;15.20;87.00
24326;DHT22;12448;45.532;5.290;2024-03-23T01:20:55;15.30;87.10
24326;DHT22;12448;45.532;5.290;2024-03-23T01:23:40;15.20;87.10
24326;DHT22;12448;45.532;5.290;2024-03-23T01:26:33;15.20;87.10
24326;DHT22;12448;45.532;5.290;2024-03-23T01:29:14;15.30;87.10
24326;DHT22;12448;45.532;5.290;2024-03-23T01:31:43;15.30;87.10
24326;DHT22;12448;45.532;5.290;2024-03-23T01:34:09;15.30;87.10
24326;DHT22;12448;45.532;5.290;2024-03-23T01:36:43;15.30;87.00
24326;DHT22;12448;45.532;5.290;2024-03-23T01:39:12;15.30;87.00
24326;DHT22;12448;45.532;5.290;2024-03-23T01:41:41;15.30;87.10
24326;DHT22;12448;45.532;5.290;2024-03-23T01:44:08;15.30;87.10
24326;DHT22;12448;45.532;5.290;2024-03-23T01:46:35;15.30;87.10
24326;DHT22;12448;45.532;5.290;2024-03-23T01:49:01;15.30;87.20
24326;DHT22;12448;45.532;5.290;2024-03-23T01:51:27;15.30;87.30
24326;DHT22;12448;45.532;5.290;2024-03-23T01:53:54;15.30;87.40
24326;DHT22;12448;45.532;5.290;2024-03-23T01:56:20;15.30;87.40
24326;DHT22;12448;45.532;5.290;2024-03-23T01:58:46;15.30;87.50
24326;DHT22;12448;45.532;5.290;2024-03-23T02:01:12;15.30;87.60
24326;DHT22;12448;45.532;5.290;2024-03-23T02:03:37;15.30;87.60
24326;DHT22;12448;45.532;5.290;2024-03-23T02:06:03;15.30;87.80
24326;DHT22;12448;45.532;5.290;2024-03-23T02:08:31;15.30;87.70
24326;DHT22;12448;45.532;5.290;2024-03-23T02:10:56;15.30;87.80
24326;DHT22;12448;45.532;5.290;2024-03-23T02:13:24;15.30;88.00
24326;DHT22;12448;45.532;5.290;2024-03-23T02:15:53;15.30;88.00
24326;DHT22;12448;45.532;5.290;2024-03-23T02:18:27;15.30;88.20
24326;DHT22;12448;45.532;5.290;2024-03-23T02:20:53;15.30;88.20
24326;DHT22;12448;45.532;5.290;2024-03-23T02:23:24;15.30;88.40
24326;DHT22;12448;45.532;5.290;2024-03-23T02:25:59;15.30;88.50
24326;DHT22;12448;45.532;5.290;2024-03-23T02:28:30;15.30;88.60
24326;DHT22;12448;45.532;5.290;2024-03-23T02:30:56;15.30;88.60
24326;DHT22;12448;45.532;5.290;2024-03-23T02:33:21;15.30;88.50
24326;DHT22;12448;45.532;5.290;2024-03-23T02:35:48;15.30;88.60
24326;DHT22;12448;45.532;5.290;2024-03-23T02:38:17;15.30;88.50
24326;DHT22;12448;45.532;5.290;2024-03-23T02:40:51;15.30;88.60
24326;DHT22;12448;45.532;5.290;2024-03-23T02:43:20;15.30;88.50
24326;DHT22;12448;45.532;5.290;2024-03-23T02:46:50;15.30;88.70
24326;DHT22;12448;45.532;5.290;2024-03-23T02:49:07;15.30;88.80
24326;DHT22;12448;45.532;5.290;2024-03-23T02:51:52;15.30;88.90
24326;DHT22;12448;45.532;5.290;2024-03-23T02:55:09;15.30;88.90
24326;DHT22;12448;45.532;5.290;2024-03-23T02:57:38;15.20;89.00
24326;DHT22;12448;45.532;5.290;2024-03-23T03:00:18;15.20;89.80
24326;DHT22;12448;45.532;5.290;2024-03-23T03:02:55;15.20;89.20
24326;DHT22;12448;45.532;5.290;2024-03-23T03:05:37;15.20;89.30
24326;DHT22;12448;45.532;5.290;2024-03-23T03:08:12;15.20;89.40
24326;DHT22;12448;45.532;5.290;2024-03-23T03:10:37;15.20;89.40
24326;DHT22;12448;45.532;5.290;2024-03-23T03:13:03;15.20;89.60
24326;DHT22;12448;45.532;5.290;2024-03-23T03:15:29;15.20;89.60
24326;DHT22;12448;45.532;5.290;2024-03-23T03:17:55;15.10;89.60
24326;DHT22;12448;45.532;5.290;2024-03-23T03:20:20;15.20;89.70
24326;DHT22;12448;45.532;5.290;2024-03-23T03:23:08;15.20;89.60
24326;DHT22;12448;45.532;5.290;2024-03-23T03:26:09;15.20;89.60
24326;DHT22;12448;45.532;5.290;2024-03-23T03:29:07;15.20;89.60
24326;DHT22;12448;45.532;5.290;2024-03-23T03:32:09;15.20;89.70
24326;DHT22;12448;45.532;5.290;2024-03-23T03:34:50;15.20;89.70
24326;DHT22;12448;45.532;5.290;2024-03-23T03:37:28;15.20;89.70
24326;DHT22;12448;45.532;5.290;2024-03-23T03:39:54;15.20;89.70
24326;DHT22;12448;45.532;5.290;2024-03-23T03:42:19;15.20;89.70
24326;DHT22;12448;45.532;5.290;2024-03-23T03:44:45;15.20;89.70
24326;DHT22;12448;45.532;5.290;2024-03-23T03:47:11;15.20;89.60
24326;DHT22;12448;45.532;5.290;2024-03-23T03:49:36;15.20;89.60
24326;DHT22;12448;45.532;5.290;2024-03-23T03:52:02;15.20;89.20
24326;DHT22;12448;45.532;5.290;2024-03-23T03:54:28;15.20;89.10
24326;DHT22;12448;45.532;5.290;2024-03-23T03:56:54;15.20;89.10
24326;DHT22;12448;45.532;5.290;2024-03-23T03:59:20;15.20;89.20
24326;DHT22;12448;45.532;5.290;2024-03-23T04:01:46;15.20;89.90
24326;DHT22;12448;45.532;5.290;2024-03-23T04:04:12;15.20;90.30
24326;DHT22;12448;45.532;5.290;2024-03-23T04:06:37;15.20;90.90
24326;DHT22;12448;45.532;5.290;2024-03-23T04:09:03;15.20;90.70
24326;DHT22;12448;45.532;5.290;2024-03-23T04:11:44;15.20;90.80
24326;DHT22;12448;45.532;5.290;2024-03-23T04:14:10;15.20;91.00
24326;DHT22;12448;45.532;5.290;2024-03-23T04:20:23;15.10;91.20
24326;DHT22;12448;45.532;5.290;2024-03-23T04:24:11;15.10;91.30
24326;DHT22;12448;45.532;5.290;2024-03-23T04:26:26;15.10;91.40
24326;DHT22;12448;45.532;5.290;2024-03-23T04:28:53;15.00;91.50
24326;DHT22;12448;45.532;5.290;2024-03-23T04:31:18;15.00;91.70
24326;DHT22;12448;45.532;5.290;2024-03-23T04:33:44;15.00;91.80
24326;DHT22;12448;45.532;5.290;2024-03-23T04:36:10;15.10;91.90
24326;DHT22;12448;45.532;5.290;2024-03-23T04:38:35;15.00;92.20
24326;DHT22;12448;45.532;5.290;2024-03-23T04:41:01;14.90;92.20
24326;DHT22;12448;45.532;5.290;2024-03-23T04:43:27;14.70;92.80
24326;DHT22;12448;45.532;5.290;2024-03-23T04:45:54;14.60;93.00
24326;DHT22;12448;45.532;5.290;2024-03-23T04:48:20;14.40;93.30
24326;DHT22;12448;45.532;5.290;2024-03-23T04:50:47;14.40;93.40
24326;DHT22;12448;45.532;5.290;2024-03-23T04:53:14;14.30;93.40
24326;DHT22;12448;45.532;5.290;2024-03-23T04:55:39;14.40;93.50
24326;DHT22;12448;45.532;5.290;2024-03-23T04:58:05;14.40;93.50
24326;DHT22;12448;45.532;5.290;2024-03-23T05:00:30;14.40;93.60
24326;DHT22;12448;45.532;5.290;2024-03-23T05:02:57;14.40;93.50
24326;DHT22;12448;45.532;5.290;2024-03-23T05:05:23;14.30;93.60
24326;DHT22;12448;45.532;5.290;2024-03-23T05:07:48;14.30;93.70
24326;DHT22;12448;45.532;5.290;2024-03-23T05:10:17;14.20;93.90
24326;DHT22;12448;45.532;5.290;2024-03-23T05:12:43;14.10;94.20
24326;DHT22;12448;45.532;5.290;2024-03-23T05:15:20;13.90;94.60
24326;DHT22;12448;45.532;5.290;2024-03-23T05:17:53;13.80;95.10
24326;DHT22;12448;45.532;5.290;2024-03-23T05:20:19;13.30;94.60
24326;DHT22;12448;45.532;5.290;2024-03-23T05:22:45;13.80;94.80
24326;DHT22;12448;45.532;5.290;2024-03-23T05:25:16;13.80;94.90
24326;DHT22;12448;45.532;5.290;2024-03-23T05:27:42;13.80;95.00
24326;DHT22;12448;45.532;5.290;2024-03-23T05:30:14;13.70;95.20
24326;DHT22;12448;45.532;5.290;2024-03-23T05:32:40;13.60;95.40
24326;DHT22;12448;45.532;5.290;2024-03-23T05:35:08;13.50;95.40
24326;DHT22;12448;45.532;5.290;2024-03-23T05:37:34;13.50;95.50
24326;DHT22;12448;45.532;5.290;2024-03-23T05:40:00;13.50;95.40
24326;DHT22;12448;45.532;5.290;2024-03-23T05:42:26;13.50;95.50
24326;DHT22;12448;45.532;5.290;2024-03-23T05:45:01;13.50;95.50
24326;DHT22;12448;45.532;5.290;2024-03-23T05:47:36;13.50;95.40
24326;DHT22;12448;45.532;5.290;2024-03-23T05:50:11;13.50;95.40
24326;DHT22;12448;45.532;5.290;2024-03-23T05:52:43;13.40;95.20
24326;DHT22;12448;45.532;5.290;2024-03-23T05:55:13;13.30;95.20
24326;DHT22;12448;45.532;5.290;2024-03-23T05:57:38;13.30;95.30
24326;DHT22;12448;45.532;5.290;2024-03-23T06:00:05;13.30;95.40
24326;DHT22;12448;45.532;5.290;2024-03-23T06:02:43;13.30;95.20
24326;DHT22;12448;45.532;5.290;2024-03-23T06:05:12;13.30;95.20
24326;DHT22;12448;45.532;5.290;2024-03-23T06:07:38;13.30;95.20
24326;DHT22;12448;45.532;5.290;2024-03-23T06:10:05;13.40;95.20
24326;DHT22;12448;45.532;5.290;2024-03-23T06:12:31;13.30;95.00
24326;DHT22;12448;45.532;5.290;2024-03-23T06:14:57;13.40;95.30
24326;DHT22;12448;45.532;5.290;2024-03-23T06:17:23;13.40;94.90
24326;DHT22;12448;45.532;5.290;2024-03-23T06:19:49;13.40;94.90
24326;DHT22;12448;45.532;5.290;2024-03-23T06:22:15;13.30;94.80
24326;DHT22;12448;45.532;5.290;2024-03-23T06:24:40;13.40;94.80
24326;DHT22;12448;45.532;5.290;2024-03-23T06:27:06;13.30;94.60
24326;DHT22;12448;45.532;5.290;2024-03-23T06:29:32;13.30;94.40
24326;DHT22;12448;45.532;5.290;2024-03-23T06:31:57;13.30;94.30
24326;DHT22;12448;45.532;5.290;2024-03-23T06:34:23;13.30;94.10
24326;DHT22;12448;45.532;5.290;2024-03-23T06:36:49;13.20;93.80
24326;DHT22;12448;45.532;5.290;2024-03-23T06:39:15;13.10;93.60
24326;DHT22;12448;45.532;5.290;2024-03-23T06:41:42;13.00;93.60
24326;DHT22;12448;45.532;5.290;2024-03-23T06:44:08;13.10;93.60
24326;DHT22;12448;45.532;5.290;2024-03-23T06:46:34;13.10;93.30
24326;DHT22;12448;45.532;5.290;2024-03-23T06:49:08;13.00;93.20
24326;DHT22;12448;45.532;5.290;2024-03-23T06:51:43;12.90;93.20
24326;DHT22;12448;45.532;5.290;2024-03-23T06:54:10;13.00;93.40
24326;DHT22;12448;45.532;5.290;2024-03-23T06:56:41;13.00;93.20
24326;DHT22;12448;45.532;5.290;2024-03-23T06:59:28;13.00;93.00
24326;DHT22;12448;45.532;5.290;2024-03-23T07:01:57;13.00;92.90
24326;DHT22;12448;45.532;5.290;2024-03-23T07:04:35;12.90;93.00
24326;DHT22;12448;45.532;5.290;2024-03-23T07:07:08;12.70;93.30
24326;DHT22;12448;45.532;5.290;2024-03-23T07:09:53;12.70;93.60
24326;DHT22;12448;45.532;5.290;2024-03-23T07:12:37;12.60;93.60
24326;DHT22;12448;45.532;5.290;2024-03-23T07:15:03;12.70;93.80
24326;DHT22;12448;45.532;5.290;2024-03-23T07:17:32;12.60;93.90
24326;DHT22;12448;45.532;5.290;2024-03-23T07:20:06;12.50;93.90
24326;DHT22;12448;45.532;5.290;2024-03-23T07:22:36;12.50;94.00
24326;DHT22;12448;45.532;5.290;2024-03-23T07:25:10;12.30;94.00
24326;DHT22;12448;45.532;5.290;2024-03-23T07:27:45;12.30;93.70
24326;DHT22;12448;45.532;5.290;2024-03-23T07:30:13;12.20;93.60
24326;DHT22;12448;45.532;5.290;2024-03-23T07:32:44;12.10;93.20
24326;DHT22;12448;45.532;5.290;2024-03-23T07:35:13;11.90;92.60
24326;DHT22;12448;45.532;5.290;2024-03-23T07:37:42;11.80;92.50
24326;DHT22;12448;45.532;5.290;2024-03-23T07:40:11;11.80;92.80
24326;DHT22;12448;45.532;5.290;2024-03-23T07:43:02;11.80;92.80
24326;DHT22;12448;45.532;5.290;2024-03-23T07:45:31;11.80;92.70
24326;DHT22;12448;45.532;5.290;2024-03-23T07:48:11;11.80;92.60
24326;DHT22;12448;45.532;5.290;2024-03-23T07:50:40;11.80;92.70
24326;DHT22;12448;45.532;5.290;2024-03-23T07:53:12;11.80;92.30
24326;DHT22;12448;45.532;5.290;2024-03-23T07:55:41;11.80;92.50
24326;DHT22;12448;45.532;5.290;2024-03-23T07:58:13;11.70;91.70
24326;DHT22;12448;45.532;5.290;2024-03-23T08:00:38;11.70;91.70
24326;DHT22;12448;45.532;5.290;2024-03-23T08:03:04;11.70;91.40
24326;DHT22;12448;45.532;5.290;2024-03-23T08:05:30;11.50;91.10
24326;DHT22;12448;45.532;5.290;2024-03-23T08:07:56;11.30;91.40
24326;DHT22;12448;45.532;5.290;2024-03-23T08:10:21;11.40;90.90
24326;DHT22;12448;45.532;5.290;2024-03-23T08:12:47;11.20;90.40
24326;DHT22;12448;45.532;5.290;2024-03-23T08:15:13;11.00;90.10
24326;DHT22;12448;45.532;5.290;2024-03-23T08:17:48;10.90;88.40
24326;DHT22;12448;45.532;5.290;2024-03-23T08:20:14;10.50;87.80
24326;DHT22;12448;45.532;5.290;2024-03-23T08:22:43;10.40;88.50
24326;DHT22;12448;45.532;5.290;2024-03-23T08:25:14;10.30;89.10
24326;DHT22;12448;45.532;5.290;2024-03-23T08:27:44;10.20;89.40
24326;DHT22;12448;45.532;5.290;2024-03-23T08:30:13;10.20;88.60
24326;DHT22;12448;45.532;5.290;2024-03-23T08:32:50;10.30;87.90
24326;DHT22;12448;45.532;5.290;2024-03-23T08:35:15;10.20;87.50
24326;DHT22;12448;45.532;5.290;2024-03-23T08:37:41;10.40;86.60
24326;DHT22;12448;45.532;5.290;2024-03-23T08:40:10;10.20;84.80
24326;DHT22;12448;45.532;5.290;2024-03-23T08:42:44;10.20;85.20
24326;DHT22;12448;45.532;5.290;2024-03-23T08:45:18;10.20;85.30
24326;DHT22;12448;45.532;5.290;2024-03-23T08:47:44;10.30;85.10
24326;DHT22;12448;45.532;5.290;2024-03-23T08:50:10;11.00;85.10
24326;DHT22;12448;45.532;5.290;2024-03-23T08:52:39;10.40;83.70
24326;DHT22;12448;45.532;5.290;2024-03-23T08:55:12;10.40;82.90
24326;DHT22;12448;45.532;5.290;2024-03-23T08:57:46;10.40;82.30
24326;DHT22;12448;45.532;5.290;2024-03-23T09:00:16;11.00;81.80
24326;DHT22;12448;45.532;5.290;2024-03-23T09:02:47;10.30;80.30
24326;DHT22;12448;45.532;5.290;2024-03-23T09:05:16;10.40;82.20
24326;DHT22;12448;45.532;5.290;2024-03-23T09:07:42;10.50;80.60
24326;DHT22;12448;45.532;5.290;2024-03-23T09:10:08;10.50;78.60
24326;DHT22;12448;45.532;5.290;2024-03-23T09:12:40;10.60;78.50
24326;DHT22;12448;45.532;5.290;2024-03-23T09:15:06;10.60;78.70
24326;DHT22;12448;45.532;5.290;2024-03-23T09:17:35;10.80;79.20
24326;DHT22;12448;45.532;5.290;2024-03-23T09:20:00;10.90;76.10
24326;DHT22;12448;45.532;5.290;2024-03-23T09:22:26;11.00;74.80
24326;DHT22;12448;45.532;5.290;2024-03-23T09:24:52;10.90;74.20
24326;DHT22;12448;45.532;5.290;2024-03-23T09:27:17;10.80;74.20
24326;DHT22;12448;45.532;5.290;2024-03-23T09:29:43;10.90;73.30
24326;DHT22;12448;45.532;5.290;2024-03-23T09:32:09;10.90;74.20
24326;DHT22;12448;45.532;5.290;2024-03-23T09:34:35;10.90;74.70
24326;DHT22;12448;45.532;5.290;2024-03-23T09:37:00;11.10;75.20
24326;DHT22;12448;45.532;5.290;2024-03-23T09:39:26;11.00;72.20
24326;DHT22;12448;45.532;5.290;2024-03-23T09:41:56;11.00;72.30
24326;DHT22;12448;45.532;5.290;2024-03-23T09:44:45;11.20;73.60
24326;DHT22;12448;45.532;5.290;2024-03-23T09:47:17;11.00;74.10
24326;DHT22;12448;45.532;5.290;2024-03-23T09:50:12;11.00;72.90
24326;DHT22;12448;45.532;5.290;2024-03-23T09:52:48;11.10;74.50
24326;DHT22;12448;45.532;5.290;2024-03-23T09:55:17;11.10;75.10
24326;DHT22;12448;45.532;5.290;2024-03-23T09:57:46;11.20;73.80
24326;DHT22;12448;45.532;5.290;2024-03-23T10:00:15;11.20;73.80
24326;DHT22;12448;45.532;5.290;2024-03-23T10:02:45;11.10;72.10
24326;DHT22;12448;45.532;5.290;2024-03-23T10:05:21;11.10;73.30
24326;DHT22;12448;45.532;5.290;2024-03-23T10:07:49;11.10;72.90
24326;DHT22;12448;45.532;5.290;2024-03-23T10:10:21;11.20;73.00
24326;DHT22;12448;45.532;5.290;2024-03-23T10:12:48;11.60;73.70
24326;DHT22;12448;45.532;5.290;2024-03-23T10:15:24;11.20;73.30
24326;DHT22;12448;45.532;5.290;2024-03-23T10:17:51;11.00;71.70
24326;DHT22;12448;45.532;5.290;2024-03-23T10:20:21;10.90;73.30
24326;DHT22;12448;45.532;5.290;2024-03-23T10:22:50;11.10;72.90
24326;DHT22;12448;45.532;5.290;2024-03-23T10:25:23;11.10;71.70
24326;DHT22;12448;45.532;5.290;2024-03-23T10:27:59;11.10;72.40
24326;DHT22;12448;45.532;5.290;2024-03-23T10:30:31;11.30;72.90
24326;DHT22;12448;45.532;5.290;2024-03-23T10:33:12;11.80;72.40
24326;DHT22;12448;45.532;5.290;2024-03-23T10:35:45;11.60;71.50
24326;DHT22;12448;45.532;5.290;2024-03-23T10:38:51;11.70;71.40
24326;DHT22;12448;45.532;5.290;2024-03-23T10:41:36;11.60;71.00
24326;DHT22;12448;45.532;5.290;2024-03-23T10:44:15;11.60;72.30
24326;DHT22;12448;45.532;5.290;2024-03-23T10:47:13;11.50;72.60
24326;DHT22;12448;45.532;5.290;2024-03-23T10:49:51;11.60;73.50
24326;DHT22;12448;45.532;5.290;2024-03-23T10:52:22;11.70;71.80
24326;DHT22;12448;45.532;5.290;2024-03-23T10:55:04;11.70;71.30
24326;DHT22;12448;45.532;5.290;2024-03-23T10:57:54;11.80;71.80
24326;DHT22;12448;45.532;5.290;2024-03-23T11:00:48;11.80;68.70
24326;DHT22;12448;45.532;5.290;2024-03-23T11:03:33;11.70;69.90
24326;DHT22;12448;45.532;5.290;2024-03-23T11:06:10;11.70;69.40
24326;DHT22;12448;45.532;5.290;2024-03-23T11:08:40;11.70;69.20
24326;DHT22;12448;45.532;5.290;2024-03-23T11:11:14;11.70;67.50
24326;DHT22;12448;45.532;5.290;2024-03-23T11:13:40;11.70;65.40
24326;DHT22;12448;45.532;5.290;2024-03-23T11:19:37;11.80;64.60
24326;DHT22;12448;45.532;5.290;2024-03-23T11:22:09;11.70;62.90
24326;DHT22;12448;45.532;5.290;2024-03-23T11:24:37;11.80;62.50
24326;DHT22;12448;45.532;5.290;2024-03-23T11:27:21;11.70;61.20
24326;DHT22;12448;45.532;5.290;2024-03-23T11:29:47;11.70;64.20
24326;DHT22;12448;45.532;5.290;2024-03-23T11:32:13;11.80;63.80
24326;DHT22;12448;45.532;5.290;2024-03-23T11:34:44;11.80;64.30
24326;DHT22;12448;45.532;5.290;2024-03-23T11:37:36;11.90;66.10
24326;DHT22;12448;45.532;5.290;2024-03-23T11:40:21;11.90;64.70
24326;DHT22;12448;45.532;5.290;2024-03-23T11:42:57;11.90;65.60
24326;DHT22;12448;45.532;5.290;2024-03-23T11:45:31;12.00;64.10
24326;DHT22;12448;45.532;5.290;2024-03-23T11:48:28;12.00;63.90
24326;DHT22;12448;45.532;5.290;2024-03-23T11:50:58;12.00;62.80
24326;DHT22;12448;45.532;5.290;2024-03-23T11:53:39;12.20;63.80
24326;DHT22;12448;45.532;5.290;2024-03-23T11:56:10;12.40;62.50
24326;DHT22;12448;45.532;5.290;2024-03-23T11:58:38;12.40;60.50
24326;DHT22;12448;45.532;5.290;2024-03-23T12:01:05;12.40;59.50
24326;DHT22;12448;45.532;5.290;2024-03-23T12:03:35;12.40;60.40
24326;DHT22;12448;45.532;5.290;2024-03-23T12:06:05;12.50;60.50
24326;DHT22;12448;45.532;5.290;2024-03-23T12:08:33;12.00;60.90
24326;DHT22;12448;45.532;5.290;2024-03-23T12:11:13;12.60;60.80
24326;DHT22;12448;45.532;5.290;2024-03-23T12:13:42;12.60;61.10
24326;DHT22;12448;45.532;5.290;2024-03-23T12:16:20;12.60;60.20
24326;DHT22;12448;45.532;5.290;2024-03-23T12:18:49;12.70;59.90
24326;DHT22;12448;45.532;5.290;2024-03-23T12:21:18;12.70;58.50
24326;DHT22;12448;45.532;5.290;2024-03-23T12:23:44;12.70;57.70
24326;DHT22;12448;45.532;5.290;2024-03-23T12:26:12;12.50;54.30
24326;DHT22;12448;45.532;5.290;2024-03-23T12:28:38;12.60;54.80
24326;DHT22;12448;45.532;5.290;2024-03-23T12:31:04;12.60;51.50
24326;DHT22;12448;45.532;5.290;2024-03-23T12:33:31;12.60;51.10
24326;DHT22;12448;45.532;5.290;2024-03-23T12:35:57;12.60;52.30
24326;DHT22;12448;45.532;5.290;2024-03-23T12:38:22;12.60;52.10
24326;DHT22;12448;45.532;5.290;2024-03-23T12:40:49;12.50;53.10
24326;DHT22;12448;45.532;5.290;2024-03-23T12:43:15;12.60;54.80
24326;DHT22;12448;45.532;5.290;2024-03-23T12:45:45;12.70;53.90
24326;DHT22;12448;45.532;5.290;2024-03-23T12:48:11;12.80;52.80
24326;DHT22;12448;45.532;5.290;2024-03-23T12:50:37;13.00;53.30
24326;DHT22;12448;45.532;5.290;2024-03-23T12:53:03;13.10;51.80
24326;DHT22;12448;45.532;5.290;2024-03-23T12:55:29;13.00;51.90
24326;DHT22;12448;45.532;5.290;2024-03-23T12:57:54;13.00;54.00
24326;DHT22;12448;45.532;5.290;2024-03-23T13:00:20;13.10;54.40
24326;DHT22;12448;45.532;5.290;2024-03-23T13:02:45;13.20;54.70
24326;DHT22;12448;45.532;5.290;2024-03-23T13:05:11;13.20;53.10
24326;DHT22;12448;45.532;5.290;2024-03-23T13:07:37;13.10;55.10
24326;DHT22;12448;45.532;5.290;2024-03-23T13:10:04;13.10;52.30
24326;DHT22;12448;45.532;5.290;2024-03-23T13:12:30;13.00;53.60
24326;DHT22;12448;45.532;5.290;2024-03-23T13:14:56;13.00;55.30
24326;DHT22;12448;45.532;5.290;2024-03-23T13:17:22;13.00;56.50
24326;DHT22;12448;45.532;5.290;2024-03-23T13:19:47;13.00;55.00
24326;DHT22;12448;45.532;5.290;2024-03-23T13:22:13;13.00;54.90
24326;DHT22;12448;45.532;5.290;2024-03-23T13:24:38;13.10;56.00
24326;DHT22;12448;45.532;5.290;2024-03-23T13:27:13;13.20;54.20
24326;DHT22;12448;45.532;5.290;2024-03-23T13:29:57;13.30;55.00
24326;DHT22;12448;45.532;5.290;2024-03-23T13:32:30;13.40;54.00
24326;DHT22;12448;45.532;5.290;2024-03-23T13:34:55;13.40;53.30
24326;DHT22;12448;45.532;5.290;2024-03-23T13:37:21;13.30;54.00
24326;DHT22;12448;45.532;5.290;2024-03-23T13:39:47;13.40;54.00
24326;DHT22;12448;45.532;5.290;2024-03-23T13:42:13;13.50;55.20
24326;DHT22;12448;45.532;5.290;2024-03-23T13:44:38;13.60;55.70
24326;DHT22;12448;45.532;5.290;2024-03-23T13:47:04;13.40;53.60
24326;DHT22;12448;45.532;5.290;2024-03-23T13:49:31;13.10;55.00
24326;DHT22;12448;45.532;5.290;2024-03-23T13:51:59;13.10;55.40
24326;DHT22;12448;45.532;5.290;2024-03-23T13:54:26;13.10;55.10
24326;DHT22;12448;45.532;5.290;2024-03-23T13:57:03;13.10;54.30
24326;DHT22;12448;45.532;5.290;2024-03-23T13:59:32;13.20;52.70
24326;DHT22;12448;45.532;5.290;2024-03-23T14:01:58;13.20;53.80
24326;DHT22;12448;45.532;5.290;2024-03-23T14:04:24;13.30;53.70
24326;DHT22;12448;45.532;5.290;2024-03-23T14:06:50;13.30;53.50
24326;DHT22;12448;45.532;5.290;2024-03-23T14:09:16;13.20;53.50
24326;DHT22;12448;45.532;5.290;2024-03-23T14:11:54;13.20;52.80
24326;DHT22;12448;45.532;5.290;2024-03-23T14:14:22;13.40;53.80
24326;DHT22;12448;45.532;5.290;2024-03-23T14:20:16;13.50;54.60
24326;DHT22;12448;45.532;5.290;2024-03-23T14:29:47;13.60;54.50
24326;DHT22;12448;45.532;5.290;2024-03-23T14:32:26;13.80;53.90
24326;DHT22;12448;45.532;5.290;2024-03-23T14:35:51;13.70;53.10
24326;DHT22;12448;45.532;5.290;2024-03-23T14:38:20;13.50;53.40
24326;DHT22;12448;45.532;5.290;2024-03-23T14:40:51;13.50;53.90
24326;DHT22;12448;45.532;5.290;2024-03-23T14:43:18;13.50;54.40
24326;DHT22;12448;45.532;5.290;2024-03-23T14:46:09;13.50;54.50
24326;DHT22;12448;45.532;5.290;2024-03-23T14:48:35;13.50;54.30
24326;DHT22;12448;45.532;5.290;2024-03-23T14:53:58;13.40;54.50
24326;DHT22;12448;45.532;5.290;2024-03-23T14:56:33;13.10;55.70
24326;DHT22;12448;45.532;5.290;2024-03-23T14:59:18;12.90;55.20
24326;DHT22;12448;45.532;5.290;2024-03-23T15:02:27;13.00;55.20
24326;DHT22;12448;45.532;5.290;2024-03-23T15:05:04;13.20;55.30
24326;DHT22;12448;45.532;5.290;2024-03-23T15:07:32;13.30;56.00
24326;DHT22;12448;45.532;5.290;2024-03-23T15:10:08;13.40;55.70
24326;DHT22;12448;45.532;5.290;2024-03-23T15:12:39;13.40;56.30
24326;DHT22;12448;45.532;5.290;2024-03-23T15:15:05;13.50;55.50
24326;DHT22;12448;45.532;5.290;2024-03-23T15:17:31;13.50;55.70
24326;DHT22;12448;45.532;5.290;2024-03-23T15:19:59;13.30;55.90
24326;DHT22;12448;45.532;5.290;2024-03-23T15:22:25;13.10;56.50
24326;DHT22;12448;45.532;5.290;2024-03-23T15:24:51;13.00;55.30
24326;DHT22;12448;45.532;5.290;2024-03-23T15:27:16;12.90;54.90
24326;DHT22;12448;45.532;5.290;2024-03-23T15:29:42;12.90;55.20
24326;DHT22;12448;45.532;5.290;2024-03-23T15:32:11;13.00;55.90
24326;DHT22;12448;45.532;5.290;2024-03-23T15:34:36;13.10;57.60
24326;DHT22;12448;45.532;5.290;2024-03-23T15:37:02;13.30;58.00
24326;DHT22;12448;45.532;5.290;2024-03-23T15:39:28;13.20;56.10
24326;DHT22;12448;45.532;5.290;2024-03-23T15:41:54;13.30;56.80
24326;DHT22;12448;45.532;5.290;2024-03-23T15:44:20;13.40;57.30
24326;DHT22;12448;45.532;5.290;2024-03-23T15:46:46;13.50;56.90
24326;DHT22;12448;45.532;5.290;2024-03-23T15:49:11;13.50;56.80
24326;DHT22;12448;45.532;5.290;2024-03-23T15:51:37;13.60;57.10
24326;DHT22;12448;45.532;5.290;2024-03-23T15:54:05;13.70;57.10
24326;DHT22;12448;45.532;5.290;2024-03-23T15:56:30;13.70;57.20
24326;DHT22;12448;45.532;5.290;2024-03-23T15:58:56;13.70;56.50
24326;DHT22;12448;45.532;5.290;2024-03-23T16:01:27;13.70;56.60
24326;DHT22;12448;45.532;5.290;2024-03-23T16:03:53;13.60;56.60
24326;DHT22;12448;45.532;5.290;2024-03-23T16:06:19;13.50;55.80
24326;DHT22;12448;45.532;5.290;2024-03-23T16:08:44;13.40;55.50
24326;DHT22;12448;45.532;5.290;2024-03-23T16:11:13;13.30;55.20
24326;DHT22;12448;45.532;5.290;2024-03-23T16:13:39;13.20;55.90
24326;DHT22;12448;45.532;5.290;2024-03-23T16:16:30;13.20;56.20
24326;DHT22;12448;45.532;5.290;2024-03-23T16:19:20;13.10;55.90
24326;DHT22;12448;45.532;5.290;2024-03-23T16:21:55;13.20;56.20
24326;DHT22;12448;45.532;5.290;2024-03-23T16:24:42;13.10;56.50
24326;DHT22;12448;45.532;5.290;2024-03-23T16:27:10;13.00;55.50
24326;DHT22;12448;45.532;5.290;2024-03-23T16:29:35;13.00;56.00
24326;DHT22;12448;45.532;5.290;2024-03-23T16:32:01;12.90;55.80
24326;DHT22;12448;45.532;5.290;2024-03-23T16:34:26;13.00;56.50
24326;DHT22;12448;45.532;5.290;2024-03-23T16:36:53;13.00;57.00
24326;DHT22;12448;45.532;5.290;2024-03-23T16:39:18;13.00;57.70
24326;DHT22;12448;45.532;5.290;2024-03-23T16:41:44;13.10;58.90
24326;DHT22;12448;45.532;5.290;2024-03-23T16:44:09;13.10;59.50
24326;DHT22;12448;45.532;5.290;2024-03-23T16:46:36;13.00;59.10
24326;DHT22;12448;45.532;5.290;2024-03-23T16:49:01;13.10;59.10
24326;DHT22;12448;45.532;5.290;2024-03-23T16:51:27;13.10;58.40
24326;DHT22;12448;45.532;5.290;2024-03-23T16:53:52;13.10;58.70
24326;DHT22;12448;45.532;5.290;2024-03-23T16:56:20;13.10;58.70
24326;DHT22;12448;45.532;5.290;2024-03-23T16:58:46;13.20;59.10
24326;DHT22;12448;45.532;5.290;2024-03-23T17:01:14;13.20;59.00
24326;DHT22;12448;45.532;5.290;2024-03-23T17:03:49;13.20;59.30
24326;DHT22;12448;45.532;5.290;2024-03-23T17:06:16;13.20;59.50
24326;DHT22;12448;45.532;5.290;2024-03-23T17:08:44;13.20;59.50
24326;DHT22;12448;45.532;5.290;2024-03-23T17:11:10;13.10;58.70